createdAt,value
2019-05-29T00:00:04.228Z,59.00
2019-05-29T00:02:31.152Z,59.22
2019-05-29T00:04:58.233Z,59.17
2019-05-29T00:07:25.041Z,59.10
2019-05-29T00:09:52.804Z,59.05
2019-05-29T00:12:21.191Z,59.26
2019-05-29T00:14:48.374Z,59.10
2019-05-29T00:17:15.508Z,59.04
2019-05-29T00:19:42.649Z,59.30
2019-05-29T00:22:10.288Z,59.23
2019-05-29T00:24:37.449Z,59.22
2019-05-29T00:27:05.408Z,59.17
2019-05-29T00:29:32.682Z,59.16
2019-05-29T00:31:59.596Z,59.39
2019-05-29T00:34:26.785Z,59.34
2019-05-29T00:36:53.896Z,59.38
2019-05-29T00:39:21.168Z,59.27
2019-05-29T00:41:48.413Z,59.39
2019-05-29T00:44:17.467Z,59.54
2019-05-29T00:46:45.776Z,59.91
2019-05-29T00:49:14.232Z,59.85
2019-05-29T00:51:41.220Z,59.84
2019-05-29T00:54:08.596Z,59.84
2019-05-29T00:56:35.592Z,59.88
2019-05-29T00:59:03.426Z,59.88
2019-05-29T01:01:30.624Z,59.87
2019-05-29T01:03:57.698Z,59.89
2019-05-29T01:06:24.746Z,59.90
2019-05-29T01:08:59.365Z,59.90
2019-05-29T01:11:27.600Z,59.75
2019-05-29T01:13:54.689Z,59.81
2019-05-29T01:16:21.741Z,59.74
2019-05-29T01:18:48.908Z,59.82
2019-05-29T01:21:17.996Z,59.76
2019-05-29T01:23:45.135Z,59.70
2019-05-29T01:26:12.479Z,59.78
2019-05-29T01:28:39.754Z,59.67
2019-05-29T01:31:06.976Z,59.60
2019-05-29T01:33:34.132Z,59.66
2019-05-29T01:36:01.301Z,59.76
2019-05-29T01:38:28.494Z,59.84
2019-05-29T01:40:55.535Z,60.04
2019-05-29T01:43:23.562Z,59.51
2019-05-29T01:45:53.679Z,59.60
2019-05-29T01:48:27.800Z,59.71
2019-05-29T01:50:56.998Z,59.66
2019-05-29T01:53:24.410Z,59.75
2019-05-29T01:55:51.285Z,59.52
2019-05-29T01:58:18.184Z,59.82
2019-05-29T02:00:44.986Z,59.56
2019-05-29T02:03:11.842Z,59.47
2019-05-29T02:05:38.686Z,59.41
2019-05-29T02:08:05.568Z,59.51
2019-05-29T02:10:32.377Z,59.80
2019-05-29T02:12:59.207Z,59.31
2019-05-29T02:15:33.462Z,60.01
2019-05-29T02:17:54.661Z,59.73
2019-05-29T02:20:21.484Z,59.55
2019-05-29T02:22:48.268Z,59.40
2019-05-29T02:25:16.398Z,59.50
2019-05-29T02:27:43.616Z,59.47
2019-05-29T02:30:10.568Z,59.70
2019-05-29T02:32:37.410Z,59.52
2019-05-29T02:35:04.216Z,59.36
2019-05-29T02:37:31.084Z,59.46
2019-05-29T02:39:57.927Z,59.58
2019-05-29T02:42:25.206Z,59.48
2019-05-29T02:44:52.138Z,59.80
2019-05-29T02:47:19.331Z,59.54
2019-05-29T02:49:46.284Z,59.80
2019-05-29T02:52:13.171Z,59.61
2019-05-29T02:54:39.959Z,59.69
2019-05-29T02:57:06.768Z,59.73
2019-05-29T02:59:33.663Z,59.67
2019-05-29T03:02:00.553Z,59.73
2019-05-29T03:04:28.179Z,59.74
2019-05-29T03:06:55.464Z,59.80
2019-05-29T03:09:22.828Z,59.72
2019-05-29T03:11:50.539Z,59.65
2019-05-29T03:14:17.333Z,59.64
2019-05-29T03:16:44.214Z,59.75
2019-05-29T03:19:11.033Z,59.75
2019-05-29T03:21:37.860Z,59.63
2019-05-29T03:24:04.815Z,59.78
2019-05-29T03:26:33.411Z,59.80
2019-05-29T03:29:00.217Z,59.70
2019-05-29T03:31:30.818Z,59.75
2019-05-29T03:33:55.793Z,59.70
2019-05-29T03:36:22.766Z,59.74
2019-05-29T03:38:49.620Z,59.90
2019-05-29T03:41:16.414Z,59.82
2019-05-29T03:43:43.219Z,59.55
2019-05-29T03:46:29.316Z,59.73
2019-05-29T03:48:38.653Z,59.88
2019-05-29T03:51:05.527Z,59.81
2019-05-29T03:53:33.818Z,59.81
2019-05-29T03:56:00.930Z,59.83
2019-05-29T03:58:28.886Z,59.81
2019-05-29T04:00:56.270Z,59.85
2019-05-29T04:03:23.110Z,59.87
2019-05-29T04:05:50.074Z,59.81
2019-05-29T04:08:17.007Z,59.85
2019-05-29T04:10:43.989Z,59.87
2019-05-29T04:13:10.813Z,59.89
2019-05-29T04:15:38.687Z,59.98
2019-05-29T04:18:05.853Z,59.86
2019-05-29T04:20:33.603Z,59.81
2019-05-29T04:23:00.481Z,59.72
2019-05-29T04:25:33.169Z,59.94
2019-05-29T04:27:55.837Z,59.84
2019-05-29T04:30:22.719Z,59.89
2019-05-29T04:32:49.644Z,59.94
2019-05-29T04:35:16.438Z,59.96
2019-05-29T04:37:43.303Z,59.83
2019-05-29T04:40:10.199Z,59.91
2019-05-29T04:42:37.673Z,59.90
2019-05-29T04:45:05.534Z,59.92
2019-05-29T04:47:33.312Z,59.85
2019-05-29T04:50:00.833Z,59.89
2019-05-29T04:52:28.987Z,59.99
2019-05-29T04:54:56.049Z,59.66
2019-05-29T04:57:22.937Z,59.82
2019-05-29T04:59:49.868Z,59.96
2019-05-29T05:02:16.770Z,60.00
2019-05-29T05:04:43.649Z,59.83
2019-05-29T05:07:10.526Z,59.69
2019-05-29T05:09:37.588Z,60.02
2019-05-29T05:12:04.598Z,59.93
2019-05-29T05:14:31.565Z,59.95
2019-05-29T05:16:58.447Z,59.83
2019-05-29T05:19:25.286Z,59.90
2019-05-29T05:21:52.097Z,60.04
2019-05-29T05:24:18.931Z,59.95
2019-05-29T05:26:45.827Z,59.94
2019-05-29T05:29:12.652Z,59.99
2019-05-29T05:31:40.662Z,59.93
2019-05-29T05:34:07.730Z,59.75
2019-05-29T05:36:34.764Z,59.89
2019-05-29T05:39:01.533Z,59.60
2019-05-29T05:41:28.687Z,59.75
2019-05-29T05:43:55.509Z,59.90
2019-05-29T05:46:24.753Z,59.63
2019-05-29T05:48:50.915Z,59.76
2019-05-29T05:51:17.708Z,59.78
2019-05-29T05:53:44.502Z,60.09
2019-05-29T05:56:11.283Z,60.29
2019-05-29T05:58:38.136Z,59.63
2019-05-29T06:01:04.910Z,59.17
2019-05-29T06:03:31.858Z,56.51
2019-05-29T06:05:58.757Z,50.79
2019-05-29T06:08:25.546Z,50.56
2019-05-29T06:10:52.399Z,50.56
2019-05-29T06:13:19.159Z,50.18
2019-05-29T06:15:45.995Z,51.09
2019-05-29T06:18:21.104Z,49.97
2019-05-29T06:20:41.299Z,50.51
2019-05-29T06:23:08.087Z,50.99
2019-05-29T06:25:36.857Z,51.06
2019-05-29T06:28:03.392Z,50.19
2019-05-29T06:30:30.189Z,50.70
2019-05-29T06:32:56.983Z,51.12
2019-05-29T06:35:23.756Z,50.54
2019-05-29T06:37:50.534Z,50.42
2019-05-29T06:40:17.449Z,50.45
2019-05-29T06:42:44.275Z,50.56
2019-05-29T06:45:11.149Z,50.35
2019-05-29T06:47:38.797Z,50.45
2019-05-29T06:50:06.090Z,50.19
2019-05-29T06:52:32.900Z,50.69
2019-05-29T06:54:59.689Z,50.11
2019-05-29T06:57:26.468Z,50.50
2019-05-29T06:59:53.240Z,50.46
2019-05-29T07:02:20.018Z,50.46
2019-05-29T07:04:46.804Z,50.60
2019-05-29T07:07:13.581Z,50.83
2019-05-29T07:09:41.076Z,51.04
2019-05-29T07:12:08.035Z,51.17
2019-05-29T07:14:36.064Z,51.33
2019-05-29T07:17:03.274Z,51.68
2019-05-29T07:19:47.439Z,51.97
2019-05-29T07:21:58.587Z,52.10
2019-05-29T07:24:25.439Z,52.24
2019-05-29T07:26:52.232Z,52.34
2019-05-29T07:29:19.012Z,52.32
2019-05-29T07:31:45.781Z,52.46
2019-05-29T07:34:12.605Z,52.42
2019-05-29T07:36:39.902Z,52.48
2019-05-29T07:39:06.900Z,52.72
2019-05-29T07:41:33.673Z,52.60
2019-05-29T07:44:00.450Z,52.73
2019-05-29T07:46:27.248Z,52.81
2019-05-29T07:48:54.022Z,52.87
2019-05-29T07:51:20.802Z,52.90
2019-05-29T07:53:48.804Z,53.02
2019-05-29T07:56:22.755Z,53.03
2019-05-29T07:58:56.855Z,53.12
2019-05-29T08:01:13.977Z,53.18
2019-05-29T08:03:41.259Z,53.23
2019-05-29T08:06:08.210Z,53.40
2019-05-29T08:08:35.018Z,53.46
2019-05-29T08:11:01.830Z,53.51
2019-05-29T08:13:28.629Z,53.79
2019-05-29T08:16:02.752Z,54.01
2019-05-29T08:18:24.111Z,54.30
2019-05-29T08:20:53.085Z,53.97
2019-05-29T08:23:19.897Z,54.31
2019-05-29T08:25:49.676Z,54.56
2019-05-29T08:28:16.718Z,54.84
2019-05-29T08:30:48.343Z,54.44
2019-05-29T08:33:12.351Z,55.50
2019-05-29T08:35:41.396Z,55.79
2019-05-29T08:38:08.452Z,55.73
2019-05-29T08:40:35.419Z,57.14
2019-05-29T08:43:02.276Z,56.62
2019-05-29T08:45:29.120Z,56.53
2019-05-29T08:47:55.926Z,56.11
2019-05-29T08:50:22.704Z,57.29
2019-05-29T08:52:50.120Z,57.43
2019-05-29T08:55:17.033Z,57.66
2019-05-29T08:57:44.261Z,57.35
2019-05-29T09:00:11.202Z,57.41
2019-05-29T09:02:37.990Z,57.15
2019-05-29T09:05:04.841Z,57.60
2019-05-29T09:07:31.694Z,57.47
2019-05-29T09:09:58.478Z,57.45
2019-05-29T09:12:25.270Z,57.46
2019-05-29T09:14:52.068Z,57.36
2019-05-29T09:17:20.054Z,57.36
2019-05-29T09:19:46.900Z,57.49
2019-05-29T09:22:14.850Z,57.40
2019-05-29T09:24:41.741Z,57.34
2019-05-29T09:27:08.557Z,57.34
2019-05-29T09:29:35.348Z,57.34
2019-05-29T09:32:02.123Z,57.34
2019-05-29T09:34:29.006Z,57.34
2019-05-29T09:36:56.068Z,57.19
2019-05-29T09:39:23.004Z,57.25
2019-05-29T09:41:49.761Z,57.24
2019-05-29T09:44:31.145Z,57.18
2019-05-29T09:46:45.047Z,57.20
2019-05-29T09:49:11.833Z,57.17
2019-05-29T09:51:38.633Z,57.20
2019-05-29T09:54:05.550Z,57.21
2019-05-29T09:56:32.373Z,57.10
2019-05-29T09:59:00.384Z,57.15
2019-05-29T10:01:27.717Z,57.16
2019-05-29T10:03:55.333Z,57.12
2019-05-29T10:06:23.046Z,57.10
2019-05-29T10:08:49.828Z,57.11
2019-05-29T10:11:16.637Z,57.11
2019-05-29T10:13:43.407Z,57.06
2019-05-29T10:16:10.223Z,57.04
2019-05-29T10:18:37.004Z,57.01
2019-05-29T10:21:05.042Z,57.03
2019-05-29T10:23:32.024Z,56.99
2019-05-29T10:26:00.285Z,56.97
2019-05-29T10:28:27.297Z,56.97
2019-05-29T10:30:54.071Z,56.95
2019-05-29T10:33:20.871Z,56.97
2019-05-29T10:35:49.686Z,56.94
2019-05-29T10:38:16.187Z,56.93
2019-05-29T10:40:47.356Z,56.95
2019-05-29T10:43:11.495Z,56.84
2019-05-29T10:45:38.274Z,56.87
2019-05-29T10:48:05.127Z,56.87
2019-05-29T10:50:31.903Z,56.91
2019-05-29T10:52:58.683Z,56.81
2019-05-29T10:55:25.450Z,56.77
2019-05-29T10:57:53.093Z,56.70
2019-05-29T11:00:20.230Z,56.56
2019-05-29T11:02:48.140Z,56.51
2019-05-29T11:05:15.590Z,56.73
2019-05-29T11:07:42.399Z,56.65
2019-05-29T11:10:11.243Z,56.65
2019-05-29T11:12:39.494Z,56.66
2019-05-29T11:15:20.404Z,56.63
2019-05-29T11:17:34.881Z,56.70
2019-05-29T11:20:01.707Z,56.65
2019-05-29T11:22:28.571Z,56.69
2019-05-29T11:24:56.583Z,56.63
2019-05-29T11:27:26.029Z,56.67
2019-05-29T11:29:53.297Z,56.65
2019-05-29T11:32:20.553Z,56.63
2019-05-29T11:34:47.346Z,56.67
2019-05-29T11:37:14.155Z,56.62
2019-05-29T11:39:40.919Z,56.42
2019-05-29T11:42:07.699Z,56.55
2019-05-29T11:44:34.479Z,56.60
2019-05-29T11:47:02.810Z,56.63
2019-05-29T11:49:29.824Z,56.63
2019-05-29T11:52:18.682Z,56.53
2019-05-29T11:54:25.140Z,56.61
2019-05-29T11:56:53.590Z,56.50
2019-05-29T11:59:20.481Z,56.22
2019-05-29T12:01:50.736Z,56.38
2019-05-29T12:04:25.737Z,56.39
2019-05-29T12:06:44.292Z,56.40
2019-05-29T12:09:11.403Z,56.59
2019-05-29T12:11:38.202Z,56.83
2019-05-29T12:14:05.094Z,56.87
2019-05-29T12:16:31.944Z,56.76
2019-05-29T12:18:59.806Z,56.79
2019-05-29T12:21:26.763Z,56.85
2019-05-29T12:23:53.994Z,56.91
2019-05-29T12:26:23.050Z,56.80
2019-05-29T12:28:49.425Z,56.76
2019-05-29T12:31:16.269Z,56.68
2019-05-29T12:33:43.065Z,56.69
2019-05-29T12:36:09.828Z,56.60
2019-05-29T12:38:36.637Z,56.74
2019-05-29T12:41:03.821Z,56.55
2019-05-29T12:43:30.858Z,56.68
2019-05-29T12:45:57.801Z,56.65
2019-05-29T12:48:24.690Z,56.49
2019-05-29T12:50:51.471Z,56.42
2019-05-29T12:53:29.756Z,56.74
2019-05-29T12:55:46.766Z,56.54
2019-05-29T12:58:13.534Z,56.49
2019-05-29T13:00:40.301Z,56.45
2019-05-29T13:03:07.096Z,56.71
2019-05-29T13:05:33.936Z,56.41
2019-05-29T13:08:00.883Z,56.61
2019-05-29T13:10:30.973Z,56.50
2019-05-29T13:13:02.360Z,56.54
2019-05-29T13:15:25.138Z,56.49
2019-05-29T13:17:55.537Z,56.35
2019-05-29T13:20:22.020Z,56.58
2019-05-29T13:22:48.973Z,56.67
2019-05-29T13:25:15.768Z,56.60
2019-05-29T13:27:42.559Z,56.50
2019-05-29T13:30:09.447Z,56.37
2019-05-29T13:32:36.296Z,56.46
2019-05-29T13:35:04.256Z,56.48
2019-05-29T13:37:31.128Z,56.56
2019-05-29T13:39:57.989Z,56.49
2019-05-29T13:42:24.785Z,56.40
2019-05-29T13:44:51.601Z,56.41
2019-05-29T13:47:18.429Z,56.44
2019-05-29T13:49:45.207Z,56.55
2019-05-29T13:52:12.582Z,56.51
2019-05-29T13:54:39.628Z,56.44
2019-05-29T13:57:07.134Z,56.49
2019-05-29T13:59:34.996Z,56.43
2019-05-29T14:02:05.778Z,56.59
2019-05-29T14:04:30.284Z,56.60
2019-05-29T14:06:58.495Z,56.49
2019-05-29T14:09:25.456Z,56.47
2019-05-29T14:11:52.305Z,56.55
2019-05-29T14:14:19.080Z,56.48
2019-05-29T14:16:45.866Z,56.52
2019-05-29T14:19:13.542Z,56.43
2019-05-29T14:21:40.420Z,56.48
2019-05-29T14:24:24.375Z,56.57
2019-05-29T14:26:35.721Z,56.51
2019-05-29T14:29:03.506Z,56.49
2019-05-29T14:31:30.386Z,56.38
2019-05-29T14:33:57.154Z,56.49
2019-05-29T14:36:23.940Z,56.44
2019-05-29T14:38:50.735Z,56.50
2019-05-29T14:41:17.502Z,56.53
2019-05-29T14:43:44.265Z,56.45
2019-05-29T14:46:12.142Z,56.56
2019-05-29T14:48:39.024Z,56.51
2019-05-29T14:51:06.591Z,56.48
2019-05-29T14:53:33.475Z,56.46
2019-05-29T14:56:00.266Z,56.45
2019-05-29T14:58:27.038Z,56.37
2019-05-29T15:00:53.822Z,56.48
2019-05-29T15:03:20.603Z,56.40
2019-05-29T15:05:47.378Z,56.49
2019-05-29T15:08:14.327Z,56.45
2019-05-29T15:10:41.205Z,56.44
2019-05-29T15:13:08.965Z,56.47
2019-05-29T15:15:36.521Z,56.41
2019-05-29T15:18:04.800Z,56.49
2019-05-29T15:20:31.833Z,56.46
2019-05-29T15:22:58.685Z,56.41
2019-05-29T15:25:25.539Z,56.27
2019-05-29T15:27:52.400Z,56.56
2019-05-29T15:30:23.136Z,56.55
2019-05-29T15:32:48.114Z,56.61
2019-05-29T15:35:18.423Z,56.60
2019-05-29T15:37:46.086Z,56.82
2019-05-29T15:40:13.109Z,56.70
2019-05-29T15:42:40.097Z,57.01
2019-05-29T15:45:07.649Z,56.71
2019-05-29T15:47:34.543Z,56.75
2019-05-29T15:50:01.559Z,56.82
2019-05-29T15:52:28.512Z,56.78
2019-05-29T15:54:56.075Z,56.89
2019-05-29T15:57:23.029Z,56.87
2019-05-29T15:59:50.007Z,57.44
2019-05-29T16:02:17.999Z,57.43
2019-05-29T16:04:45.057Z,57.27
2019-05-29T16:07:12.015Z,57.35
2019-05-29T16:09:39.799Z,57.23
2019-05-29T16:12:06.700Z,57.34
2019-05-29T16:14:33.577Z,57.36
2019-05-29T16:17:00.485Z,57.29
2019-05-29T16:19:27.346Z,57.30
2019-05-29T16:21:54.132Z,57.28
2019-05-29T16:24:20.918Z,57.09
2019-05-29T16:26:47.676Z,57.24
2019-05-29T16:29:17.321Z,56.57
2019-05-29T16:31:42.998Z,56.17
2019-05-29T16:34:09.849Z,55.98
2019-05-29T16:36:36.665Z,56.23
2019-05-29T16:39:04.627Z,56.50
2019-05-29T16:41:31.412Z,56.57
2019-05-29T16:43:58.208Z,56.83
2019-05-29T16:46:25.039Z,56.87
2019-05-29T16:48:51.833Z,56.71
2019-05-29T16:51:18.841Z,56.70
2019-05-29T16:53:45.684Z,56.77
2019-05-29T16:56:12.742Z,56.67
2019-05-29T16:58:39.500Z,56.90
2019-05-29T17:01:06.283Z,56.76
2019-05-29T17:03:33.088Z,56.78
2019-05-29T17:05:59.882Z,56.73
2019-05-29T17:08:26.664Z,56.88
2019-05-29T17:10:53.435Z,56.75
2019-05-29T17:13:20.656Z,56.74
2019-05-29T17:15:47.488Z,56.76
2019-05-29T17:18:14.751Z,56.86
2019-05-29T17:20:41.601Z,56.70
2019-05-29T17:23:08.434Z,56.69
2019-05-29T17:25:35.192Z,56.76
2019-05-29T17:28:01.978Z,56.70
2019-05-29T17:30:28.773Z,56.69
2019-05-29T17:32:55.558Z,56.58
2019-05-29T17:35:23.182Z,56.54
2019-05-29T17:37:50.094Z,56.75
2019-05-29T17:40:17.372Z,56.80
2019-05-29T17:42:44.170Z,56.74
2019-05-29T17:45:12.226Z,56.59
2019-05-29T17:47:39.746Z,56.71
2019-05-29T17:50:06.562Z,56.72
2019-05-29T17:52:33.402Z,56.68
2019-05-29T17:55:00.214Z,56.72
2019-05-29T17:57:27.034Z,56.70
2019-05-29T17:59:53.805Z,56.59
2019-05-29T18:02:20.608Z,56.68
2019-05-29T18:04:47.475Z,56.63
2019-05-29T18:07:14.259Z,56.70
2019-05-29T18:09:41.030Z,56.64
2019-05-29T18:12:07.807Z,56.67
2019-05-29T18:14:34.586Z,56.52
2019-05-29T18:17:01.365Z,56.63
2019-05-29T18:19:28.350Z,56.36
2019-05-29T18:21:55.192Z,56.61
2019-05-29T18:24:21.960Z,56.62
2019-05-29T18:26:48.802Z,56.45
2019-05-29T18:29:15.651Z,56.37
2019-05-29T18:31:42.444Z,56.31
2019-05-29T18:34:09.245Z,56.53
2019-05-29T18:36:36.036Z,56.49
2019-05-29T18:39:03.336Z,56.56
2019-05-29T18:41:30.156Z,56.44
2019-05-29T18:43:56.924Z,56.59
2019-05-29T18:46:24.992Z,56.66
2019-05-29T18:48:52.318Z,56.39
2019-05-29T18:51:20.342Z,56.35
2019-05-29T18:53:47.260Z,56.45
2019-05-29T18:56:14.073Z,56.39
2019-05-29T18:58:40.846Z,56.46
2019-05-29T19:01:07.729Z,56.42
2019-05-29T19:03:34.567Z,56.42
2019-05-29T19:06:01.370Z,56.35
2019-05-29T19:08:28.142Z,56.37
2019-05-29T19:10:54.942Z,56.51
2019-05-29T19:13:21.798Z,56.44
2019-05-29T19:15:48.544Z,56.67
2019-05-29T19:18:15.319Z,56.59
2019-05-29T19:20:42.098Z,57.04
2019-05-29T19:23:08.892Z,56.21
2019-05-29T19:25:35.657Z,57.25
2019-05-29T19:28:02.478Z,57.40
2019-05-29T19:30:29.496Z,57.00
2019-05-29T19:32:56.304Z,57.93
2019-05-29T19:35:23.477Z,57.93
2019-05-29T19:37:50.353Z,58.45
2019-05-29T19:40:17.142Z,58.37
2019-05-29T19:42:43.906Z,58.31
2019-05-29T19:45:10.683Z,58.39
2019-05-29T19:47:37.456Z,58.65
2019-05-29T19:50:04.230Z,58.39
2019-05-29T19:52:31.246Z,58.76
2019-05-29T19:54:58.081Z,58.80
2019-05-29T19:57:25.919Z,58.69
2019-05-29T19:59:52.947Z,58.55
2019-05-29T20:02:19.712Z,58.75
2019-05-29T20:04:46.505Z,58.18
2019-05-29T20:07:13.281Z,58.45
2019-05-29T20:09:40.084Z,58.12
2019-05-29T20:12:06.894Z,58.33
2019-05-29T20:14:33.853Z,58.08
2019-05-29T20:17:00.850Z,57.78
2019-05-29T20:19:28.262Z,58.04
2019-05-29T20:21:55.244Z,58.06
2019-05-29T20:24:22.141Z,57.72
2019-05-29T20:26:48.989Z,58.21
2019-05-29T20:29:15.941Z,58.00
2019-05-29T20:31:42.988Z,58.20
2019-05-29T20:34:09.784Z,58.06
2019-05-29T20:36:37.271Z,58.31
2019-05-29T20:39:05.402Z,58.13
2019-05-29T20:41:34.984Z,57.88
2019-05-29T20:44:00.931Z,57.85
2019-05-29T20:46:27.753Z,57.90
2019-05-29T20:48:54.626Z,57.83
2019-05-29T20:51:21.473Z,57.71
2019-05-29T20:53:48.303Z,58.05
2019-05-29T20:56:15.119Z,57.94
2019-05-29T20:58:42.025Z,57.82
2019-05-29T21:01:08.998Z,58.01
2019-05-29T21:03:36.319Z,57.77
2019-05-29T21:06:03.349Z,57.72
2019-05-29T21:08:30.202Z,57.72
2019-05-29T21:10:57.030Z,57.80
2019-05-29T21:13:24.198Z,57.88
2019-05-29T21:15:51.182Z,57.98
2019-05-29T21:18:17.978Z,57.87
2019-05-29T21:20:44.914Z,58.19
2019-05-29T21:23:12.013Z,58.10
2019-05-29T21:25:39.037Z,57.77
2019-05-29T21:28:06.076Z,58.04
2019-05-29T21:30:32.972Z,57.95
2019-05-29T21:32:59.800Z,57.74
2019-05-29T21:35:26.726Z,57.85
2019-05-29T21:37:53.598Z,57.79
2019-05-29T21:40:20.527Z,57.81
2019-05-29T21:42:47.479Z,57.95
2019-05-29T21:45:14.333Z,57.96
2019-05-29T21:47:41.209Z,57.94
2019-05-29T21:50:08.120Z,58.04
2019-05-29T21:52:34.969Z,57.93
2019-05-29T21:55:01.764Z,57.86
2019-05-29T21:57:28.723Z,57.75
2019-05-29T21:59:55.676Z,57.85
2019-05-29T22:02:22.648Z,57.72
2019-05-29T22:04:50.089Z,57.77
2019-05-29T22:07:16.942Z,57.76
2019-05-29T22:09:43.783Z,58.30
2019-05-29T22:12:10.725Z,57.96
2019-05-29T22:14:37.527Z,58.00
2019-05-29T22:17:04.452Z,58.23
2019-05-29T22:19:31.361Z,58.08
2019-05-29T22:21:59.171Z,58.49
2019-05-29T22:24:26.273Z,58.09
2019-05-29T22:26:53.223Z,58.02
2019-05-29T22:29:20.059Z,57.92
2019-05-29T22:31:46.997Z,58.23
2019-05-29T22:34:13.916Z,58.35
2019-05-29T22:36:40.780Z,58.37
2019-05-29T22:39:07.707Z,58.08
2019-05-29T22:41:34.724Z,58.11
2019-05-29T22:44:02.617Z,58.12
2019-05-29T22:46:29.638Z,58.25
2019-05-29T22:48:57.823Z,58.15
2019-05-29T22:51:24.687Z,58.00
2019-05-29T22:53:52.512Z,58.24
2019-05-29T22:56:20.235Z,57.95
2019-05-29T22:58:47.195Z,58.02
2019-05-29T23:01:14.002Z,57.91
2019-05-29T23:03:40.964Z,57.80
2019-05-29T23:06:07.844Z,57.78
2019-05-29T23:08:35.430Z,57.89
2019-05-29T23:11:03.107Z,57.94
2019-05-29T23:13:30.154Z,57.81
2019-05-29T23:15:57.037Z,57.86
2019-05-29T23:18:24.011Z,57.79
2019-05-29T23:20:50.924Z,57.76
2019-05-29T23:23:17.858Z,57.68
2019-05-29T23:25:44.893Z,57.67
2019-05-29T23:28:11.825Z,57.79
2019-05-29T23:30:38.804Z,57.76
2019-05-29T23:33:05.791Z,57.63
2019-05-29T23:35:32.638Z,57.67
2019-05-29T23:37:59.563Z,57.69
2019-05-29T23:40:26.484Z,57.69
2019-05-29T23:42:53.399Z,57.66
2019-05-29T23:45:20.281Z,57.61
2019-05-29T23:47:47.062Z,57.70
2019-05-29T23:50:13.938Z,57.64
2019-05-29T23:52:40.854Z,57.71
2019-05-29T23:55:07.739Z,57.57
2019-05-29T23:57:34.577Z,57.58
